createdAt,value
2023-05-01T00:00:04.000Z,89.60
2023-05-01T00:01:04.000Z,89.60
2023-05-01T00:02:04.000Z,89.70
2023-05-01T00:03:04.000Z,89.70
2023-05-01T00:04:04.000Z,89.60
2023-05-01T00:05:04.000Z,89.43
2023-05-01T00:06:04.000Z,89.29
2023-05-01T00:07:04.000Z,89.29
2023-05-01T00:08:04.000Z,89.50
2023-05-01T00:09:04.000Z,89.43
2023-05-01T00:10:04.000Z,89.64
2023-05-01T00:11:04.000Z,89.75
2023-05-01T00:12:04.000Z,89.95
2023-05-01T00:13:04.000Z,90.26
2023-05-01T00:14:04.000Z,90.37
2023-05-01T00:15:04.000Z,90.26
2023-05-01T00:16:05.000Z,90.16
2023-05-01T00:17:05.000Z,89.92
2023-05-01T00:18:05.000Z,89.70
2023-05-01T00:19:05.000Z,89.39
2023-05-01T00:20:05.000Z,89.18
2023-05-01T00:21:05.000Z,88.87
2023-05-01T00:22:05.000Z,88.46
2023-05-01T00:23:05.000Z,88.10
2023-05-01T00:24:05.000Z,88.00
2023-05-01T00:25:05.000Z,88.00
2023-05-01T00:26:05.000Z,87.90
2023-05-01T00:27:05.000Z,87.79
2023-05-01T00:28:05.000Z,87.69
2023-05-01T00:29:05.000Z,87.69
2023-05-01T00:30:05.000Z,87.69
2023-05-01T00:31:05.000Z,87.48
2023-05-01T00:32:06.000Z,87.17
2023-05-01T00:33:06.000Z,86.86
2023-05-01T00:34:06.000Z,86.41
2023-05-01T00:35:06.000Z,86.19
2023-05-01T00:36:06.000Z,86.19
2023-05-01T00:37:06.000Z,86.09
2023-05-01T00:38:06.000Z,85.78
2023-05-01T00:39:06.000Z,85.68
2023-05-01T00:40:06.000Z,85.47
2023-05-01T00:41:06.000Z,85.47
2023-05-01T00:42:06.000Z,85.26
2023-05-01T00:43:06.000Z,85.05
2023-05-01T00:44:06.000Z,85.16
2023-05-01T00:45:06.000Z,85.36
2023-05-01T00:46:06.000Z,85.43
2023-05-01T00:47:07.000Z,85.64
2023-05-01T00:48:07.000Z,85.64
2023-05-01T00:49:07.000Z,85.64
2023-05-01T00:50:07.000Z,85.43
2023-05-01T00:51:07.000Z,85.22
2023-05-01T00:52:07.000Z,85.33
2023-05-01T00:53:07.000Z,85.02
2023-05-01T00:54:07.000Z,84.50
2023-05-01T00:55:07.000Z,84.19
2023-05-01T00:56:07.000Z,83.98
2023-05-01T00:57:07.000Z,83.87
2023-05-01T00:58:07.000Z,83.87
2023-05-01T00:59:07.000Z,83.98
2023-05-01T01:00:07.000Z,83.87
2023-05-01T01:01:07.000Z,83.67
2023-05-01T01:02:07.000Z,83.67
2023-05-01T01:03:08.000Z,83.87
2023-05-01T01:04:08.000Z,83.87
2023-05-01T01:05:08.000Z,83.98
2023-05-01T01:06:08.000Z,83.77
2023-05-01T01:07:08.000Z,83.67
2023-05-01T01:08:08.000Z,83.56
2023-05-01T01:09:08.000Z,83.56
2023-05-01T01:10:08.000Z,83.56
2023-05-01T01:11:08.000Z,83.56
2023-05-01T01:12:08.000Z,83.67
2023-05-01T01:13:08.000Z,83.46
2023-05-01T01:14:08.000Z,83.46
2023-05-01T01:15:08.000Z,83.46
2023-05-01T01:16:08.000Z,83.25
2023-05-01T01:17:08.000Z,83.15
2023-05-01T01:18:08.000Z,83.04
2023-05-01T01:19:08.000Z,83.04
2023-05-01T01:20:09.000Z,83.04
2023-05-01T01:21:09.000Z,82.94
2023-05-01T01:22:09.000Z,83.04
2023-05-01T01:23:09.000Z,83.04
2023-05-01T01:24:09.000Z,83.15
2023-05-01T01:25:09.000Z,83.36
2023-05-01T01:26:09.000Z,83.36
2023-05-01T01:27:09.000Z,83.67
2023-05-01T01:28:09.000Z,84.08
2023-05-01T01:29:09.000Z,84.39
2023-05-01T01:30:09.000Z,83.98
2023-05-01T01:31:09.000Z,84.19
2023-05-01T01:32:09.000Z,84.91
2023-05-01T01:33:09.000Z,84.84
2023-05-01T01:34:09.000Z,84.53
2023-05-01T01:35:10.000Z,84.33
2023-05-01T01:36:10.000Z,84.22
2023-05-01T01:37:10.000Z,84.33
2023-05-01T01:38:10.000Z,84.43
2023-05-01T01:39:10.000Z,85.05
2023-05-01T01:40:10.000Z,85.16
2023-05-01T01:41:10.000Z,84.99
2023-05-01T01:42:10.000Z,84.99
2023-05-01T01:43:10.000Z,85.10
2023-05-01T01:44:10.000Z,85.51
2023-05-01T01:45:10.000Z,85.41
2023-05-01T01:46:10.000Z,85.20
2023-05-01T01:47:10.000Z,85.51
2023-05-01T01:48:10.000Z,85.61
2023-05-01T01:49:10.000Z,85.41
2023-05-01T01:50:10.000Z,85.41
2023-05-01T01:51:10.000Z,85.30
2023-05-01T01:52:11.000Z,85.10
2023-05-01T01:53:11.000Z,84.89
2023-05-01T01:54:11.000Z,84.68
2023-05-01T01:55:11.000Z,85.10
2023-05-01T01:56:11.000Z,85.20
2023-05-01T01:57:11.000Z,85.61
2023-05-01T01:58:11.000Z,85.96
2023-05-01T01:59:11.000Z,85.96
2023-05-01T02:00:11.000Z,85.86
2023-05-01T02:01:11.000Z,85.96
2023-05-01T02:02:11.000Z,86.49
2023-05-01T02:03:11.000Z,86.27
2023-05-01T02:04:11.000Z,86.07
2023-05-01T02:05:11.000Z,85.96
2023-05-01T02:06:11.000Z,86.07
2023-05-01T02:07:12.000Z,86.07
2023-05-01T02:08:12.000Z,85.75
2023-05-01T02:09:12.000Z,85.86
2023-05-01T02:10:12.000Z,86.17
2023-05-01T02:11:12.000Z,86.07
2023-05-01T02:12:12.000Z,86.27
2023-05-01T02:13:12.000Z,86.17
2023-05-01T02:14:12.000Z,86.38
2023-05-01T02:15:12.000Z,86.17
2023-05-01T02:16:12.000Z,86.07
2023-05-01T02:17:12.000Z,86.38
2023-05-01T02:18:12.000Z,86.17
2023-05-01T02:19:12.000Z,86.07
2023-05-01T02:20:12.000Z,85.80
2023-05-01T02:21:12.000Z,85.90
2023-05-01T02:22:13.000Z,86.21
2023-05-01T02:23:13.000Z,86.32
2023-05-01T02:24:13.000Z,86.52
2023-05-01T02:25:13.000Z,87.66
2023-05-01T02:26:13.000Z,87.98
2023-05-01T02:27:13.000Z,88.50
2023-05-01T02:28:13.000Z,88.60
2023-05-01T02:29:13.000Z,87.98
2023-05-01T02:30:13.000Z,87.60
2023-05-01T02:31:13.000Z,87.40
2023-05-01T02:32:13.000Z,87.29
2023-05-01T02:33:13.000Z,87.60
2023-05-01T02:34:13.000Z,87.60
2023-05-01T02:35:13.000Z,87.92
2023-05-01T02:36:14.000Z,88.02
2023-05-01T02:37:14.000Z,88.23
2023-05-01T02:38:14.000Z,88.17
2023-05-01T02:39:14.000Z,88.43
2023-05-01T02:40:14.000Z,88.48
2023-05-01T02:41:14.000Z,88.43
2023-05-01T02:42:14.000Z,88.85
2023-05-01T02:43:14.000Z,88.58
2023-05-01T02:44:14.000Z,88.48
2023-05-01T02:45:14.000Z,88.37
2023-05-01T02:46:14.000Z,88.27
2023-05-01T02:47:14.000Z,88.37
2023-05-01T02:48:14.000Z,88.48
2023-05-01T02:49:14.000Z,88.58
2023-05-01T02:50:14.000Z,88.68
2023-05-01T02:51:15.000Z,89.00
2023-05-01T02:52:15.000Z,89.00
2023-05-01T02:53:15.000Z,88.89
2023-05-01T02:54:15.000Z,89.00
2023-05-01T02:55:15.000Z,89.10
2023-05-01T02:56:15.000Z,89.41
2023-05-01T02:57:15.000Z,89.41
2023-05-01T02:58:15.000Z,89.41
2023-05-01T02:59:15.000Z,89.37
2023-05-01T03:00:15.000Z,89.48
2023-05-01T03:01:15.000Z,89.48
2023-05-01T03:02:15.000Z,89.17
2023-05-01T03:03:15.000Z,88.96
2023-05-01T03:04:16.000Z,89.17
2023-05-01T03:05:16.000Z,89.02
2023-05-01T03:06:16.000Z,88.81
2023-05-01T03:07:16.000Z,88.71
2023-05-01T03:08:16.000Z,88.50
2023-05-01T03:09:16.000Z,88.09
2023-05-01T03:10:16.000Z,87.66
2023-05-01T03:11:16.000Z,87.21
2023-05-01T03:12:16.000Z,86.69
2023-05-01T03:13:16.000Z,86.59
2023-05-01T03:14:16.000Z,86.69
2023-05-01T03:15:16.000Z,86.69
2023-05-01T03:16:16.000Z,86.38
2023-05-01T03:17:16.000Z,86.17
2023-05-01T03:18:17.000Z,86.38
2023-05-01T03:19:17.000Z,86.38
2023-05-01T03:20:17.000Z,86.17
2023-05-01T03:21:17.000Z,86.07
2023-05-01T03:22:17.000Z,86.17
2023-05-01T03:23:17.000Z,86.49
2023-05-01T03:24:17.000Z,86.69
2023-05-01T03:25:17.000Z,86.59
2023-05-01T03:26:17.000Z,86.52
2023-05-01T03:27:17.000Z,86.69
2023-05-01T03:28:17.000Z,86.52
2023-05-01T03:29:17.000Z,86.42
2023-05-01T03:30:17.000Z,86.63
2023-05-01T03:31:17.000Z,86.73
2023-05-01T03:32:18.000Z,86.73
2023-05-01T03:33:18.000Z,86.38
2023-05-01T03:34:18.000Z,85.96
2023-05-01T03:35:18.000Z,85.96
2023-05-01T03:36:18.000Z,85.55
2023-05-01T03:37:18.000Z,85.34
2023-05-01T03:38:18.000Z,85.34
2023-05-01T03:39:18.000Z,85.03
2023-05-01T03:40:18.000Z,84.68
2023-05-01T03:41:18.000Z,84.68
2023-05-01T03:42:18.000Z,84.27
2023-05-01T03:43:18.000Z,83.84
2023-05-01T03:44:18.000Z,83.84
2023-05-01T03:45:18.000Z,83.64
2023-05-01T03:46:18.000Z,83.74
2023-05-01T03:47:19.000Z,83.84
2023-05-01T03:48:19.000Z,83.70
2023-05-01T03:49:19.000Z,83.74
2023-05-01T03:50:19.000Z,83.81
2023-05-01T03:51:19.000Z,84.16
2023-05-01T03:52:19.000Z,83.70
2023-05-01T03:53:19.000Z,83.39
2023-05-01T03:54:19.000Z,83.18
2023-05-01T03:55:19.000Z,82.98
2023-05-01T03:56:19.000Z,82.77
2023-05-01T03:57:19.000Z,82.77
2023-05-01T03:58:19.000Z,82.21
2023-05-01T03:59:19.000Z,82.01
2023-05-01T04:00:19.000Z,82.01
2023-05-01T04:01:19.000Z,82.01
2023-05-01T04:02:20.000Z,81.90
2023-05-01T04:03:20.000Z,82.01
2023-05-01T04:04:20.000Z,81.97
2023-05-01T04:05:20.000Z,81.90
2023-05-01T04:06:20.000Z,81.66
2023-05-01T04:07:20.000Z,81.76
2023-05-01T04:08:20.000Z,81.56
2023-05-01T04:09:20.000Z,81.24
2023-05-01T04:10:20.000Z,81.14
2023-05-01T04:11:20.000Z,80.93
2023-05-01T04:12:20.000Z,80.62
2023-05-01T04:13:20.000Z,80.83
2023-05-01T04:14:20.000Z,80.93
2023-05-01T04:15:20.000Z,80.83
2023-05-01T04:16:20.000Z,80.83
2023-05-01T04:17:20.000Z,80.58
2023-05-01T04:18:21.000Z,80.68
2023-05-01T04:19:21.000Z,80.79
2023-05-01T04:20:21.000Z,80.68
2023-05-01T04:21:21.000Z,80.58
2023-05-01T04:22:21.000Z,80.58
2023-05-01T04:23:21.000Z,80.58
2023-05-01T04:24:21.000Z,80.47
2023-05-01T04:25:21.000Z,80.16
2023-05-01T04:26:21.000Z,79.96
2023-05-01T04:27:21.000Z,80.47
2023-05-01T04:28:21.000Z,81.37
2023-05-01T04:29:21.000Z,81.58
2023-05-01T04:30:21.000Z,81.37
2023-05-01T04:31:21.000Z,81.48
2023-05-01T04:32:21.000Z,81.58
2023-05-01T04:33:21.000Z,81.68
2023-05-01T04:34:21.000Z,82.20
2023-05-01T04:35:22.000Z,82.10
2023-05-01T04:36:22.000Z,81.68
2023-05-01T04:37:22.000Z,81.27
2023-05-01T04:38:22.000Z,81.06
2023-05-01T04:39:22.000Z,81.27
2023-05-01T04:40:22.000Z,80.96
2023-05-01T04:41:22.000Z,81.06
2023-05-01T04:42:22.000Z,80.85
2023-05-01T04:43:22.000Z,80.44
2023-05-01T04:44:22.000Z,80.65
2023-05-01T04:45:22.000Z,80.19
2023-05-01T04:46:22.000Z,79.58
2023-05-01T04:47:22.000Z,79.78
2023-05-01T04:48:22.000Z,79.68
2023-05-01T04:49:22.000Z,79.68
2023-05-01T04:50:22.000Z,79.44
2023-05-01T04:51:22.000Z,79.13
2023-05-01T04:52:22.000Z,79.13
2023-05-01T04:53:23.000Z,78.92
2023-05-01T04:54:23.000Z,78.61
2023-05-01T04:55:23.000Z,78.40
2023-05-01T04:56:23.000Z,77.84
2023-05-01T04:57:23.000Z,77.43
2023-05-01T04:58:23.000Z,77.53
2023-05-01T04:59:23.000Z,77.95
2023-05-01T05:00:23.000Z,77.43
2023-05-01T05:01:23.000Z,77.84
2023-05-01T05:02:23.000Z,78.02
2023-05-01T05:03:23.000Z,77.50
2023-05-01T05:04:23.000Z,77.70
2023-05-01T05:05:23.000Z,77.91
2023-05-01T05:06:23.000Z,78.43
2023-05-01T05:07:23.000Z,78.19
2023-05-01T05:08:23.000Z,78.22
2023-05-01T05:09:23.000Z,78.70
2023-05-01T05:10:23.000Z,78.39
2023-05-01T05:11:23.000Z,77.98
2023-05-01T05:12:23.000Z,77.47
2023-05-01T05:13:24.000Z,77.56
2023-05-01T05:14:24.000Z,76.53
2023-05-01T05:15:24.000Z,76.81
2023-05-01T05:16:24.000Z,76.60
2023-05-01T05:17:24.000Z,76.81
2023-05-01T05:18:24.000Z,77.74
2023-05-01T05:19:24.000Z,78.42
2023-05-01T05:20:24.000Z,77.08
2023-05-01T05:21:24.000Z,76.56
2023-05-01T05:22:24.000Z,76.77
2023-05-01T05:23:24.000Z,76.77
2023-05-01T05:24:24.000Z,77.50
2023-05-01T05:25:24.000Z,77.08
2023-05-01T05:26:24.000Z,76.84
2023-05-01T05:27:24.000Z,77.25
2023-05-01T05:28:24.000Z,76.94
2023-05-01T05:29:24.000Z,78.08
2023-05-01T05:30:24.000Z,78.28
2023-05-01T05:31:24.000Z,77.01
2023-05-01T05:32:24.000Z,75.98
2023-05-01T05:33:24.000Z,75.77
2023-05-01T05:34:24.000Z,75.05
2023-05-01T05:35:24.000Z,75.74
2023-05-01T05:36:24.000Z,76.15
2023-05-01T05:37:25.000Z,75.63
2023-05-01T05:38:25.000Z,75.81
2023-05-01T05:39:25.000Z,75.18
2023-05-01T05:40:25.000Z,75.39
2023-05-01T05:41:25.000Z,75.18
2023-05-01T05:42:25.000Z,75.09
2023-05-01T05:43:25.000Z,76.12
2023-05-01T05:44:25.000Z,75.29
2023-05-01T05:45:25.000Z,74.43
2023-05-01T05:46:25.000Z,74.22
2023-05-01T05:47:25.000Z,74.43
2023-05-01T05:48:25.000Z,74.53
2023-05-01T05:49:25.000Z,75.32
2023-05-01T05:50:25.000Z,74.29
2023-05-01T05:51:25.000Z,75.22
2023-05-01T05:52:25.000Z,74.91
2023-05-01T05:53:25.000Z,75.01
2023-05-01T05:54:25.000Z,75.12
2023-05-01T05:55:25.000Z,75.32
2023-05-01T05:56:25.000Z,76.25
2023-05-01T05:57:25.000Z,77.04
2023-05-01T05:58:25.000Z,77.97
2023-05-01T05:59:25.000Z,77.45
2023-05-01T06:00:25.000Z,76.42
2023-05-01T06:01:25.000Z,75.39
2023-05-01T06:02:25.000Z,75.29
2023-05-01T06:03:25.000Z,75.70
2023-05-01T06:04:25.000Z,74.36
2023-05-01T06:05:25.000Z,75.70
2023-05-01T06:06:25.000Z,76.11
2023-05-01T06:07:25.000Z,75.67
2023-05-01T06:08:26.000Z,75.05
2023-05-01T06:09:26.000Z,74.63
2023-05-01T06:10:26.000Z,73.40
2023-05-01T06:11:26.000Z,74.33
2023-05-01T06:12:26.000Z,73.78
2023-05-01T06:13:26.000Z,72.85
2023-05-01T06:14:26.000Z,72.03
2023-05-01T06:15:26.000Z,71.92
2023-05-01T06:16:26.000Z,71.72
2023-05-01T06:17:26.000Z,71.72
2023-05-01T06:18:26.000Z,72.75
2023-05-01T06:19:26.000Z,70.90
2023-05-01T06:20:26.000Z,72.44
2023-05-01T06:21:26.000Z,72.51
2023-05-01T06:22:26.000Z,72.72
2023-05-01T06:23:26.000Z,70.97
2023-05-01T06:24:26.000Z,72.81
2023-05-01T06:25:26.000Z,71.89
2023-05-01T06:26:26.000Z,71.48
2023-05-01T06:27:26.000Z,71.96
2023-05-01T06:28:26.000Z,72.78
2023-05-01T06:29:26.000Z,72.27
2023-05-01T06:30:26.000Z,71.45
2023-05-01T06:31:26.000Z,73.09
2023-05-01T06:32:26.000Z,73.68
2023-05-01T06:33:26.000Z,72.03
2023-05-01T06:34:26.000Z,70.49
2023-05-01T06:35:26.000Z,71.00
2023-05-01T06:36:26.000Z,69.94
2023-05-01T06:37:26.000Z,71.28
2023-05-01T06:38:26.000Z,70.87
2023-05-01T06:39:26.000Z,71.69
2023-05-01T06:40:26.000Z,69.60
2023-05-01T06:41:26.000Z,68.88
2023-05-01T06:42:26.000Z,69.40
2023-05-01T06:43:26.000Z,70.42
2023-05-01T06:44:26.000Z,68.85
2023-05-01T06:45:26.000Z,69.57
2023-05-01T06:46:26.000Z,70.60
2023-05-01T06:47:26.000Z,69.16
2023-05-01T06:48:26.000Z,69.64
2023-05-01T06:49:26.000Z,69.33
2023-05-01T06:50:26.000Z,68.41
2023-05-01T06:51:26.000Z,67.49
2023-05-01T06:52:26.000Z,67.49
2023-05-01T06:53:26.000Z,69.10
2023-05-01T06:54:26.000Z,66.77
2023-05-01T06:55:26.000Z,67.25
2023-05-01T06:56:26.000Z,68.89
2023-05-01T06:57:26.000Z,67.76
2023-05-01T06:58:26.000Z,68.55
2023-05-01T06:59:26.000Z,67.22
2023-05-01T07:00:26.000Z,67.32
2023-05-01T07:01:26.000Z,66.19
2023-05-01T07:02:26.000Z,65.99
2023-05-01T07:03:26.000Z,66.30
2023-05-01T07:04:26.000Z,67.73
2023-05-01T07:05:26.000Z,66.57
2023-05-01T07:06:26.000Z,67.40
2023-05-01T07:07:26.000Z,67.40
2023-05-01T07:08:26.000Z,67.19
2023-05-01T07:09:26.000Z,67.70
2023-05-01T07:10:26.000Z,68.90
2023-05-01T07:11:26.000Z,67.26
2023-05-01T07:12:26.000Z,67.67
2023-05-01T07:13:26.000Z,66.51
2023-05-01T07:14:26.000Z,67.13
2023-05-01T07:15:26.000Z,65.80
2023-05-01T07:16:26.000Z,64.77
2023-05-01T07:17:26.000Z,63.62
2023-05-01T07:18:26.000Z,65.36
2023-05-01T07:19:26.000Z,63.10
2023-05-01T07:20:26.000Z,65.36
2023-05-01T07:21:26.000Z,64.30
2023-05-01T07:22:26.000Z,63.18
2023-05-01T07:23:26.000Z,62.70
2023-05-01T07:24:26.000Z,61.88
2023-05-01T07:25:26.000Z,61.57
2023-05-01T07:26:26.000Z,62.70
2023-05-01T07:27:26.000Z,64.23
2023-05-01T07:28:26.000Z,65.15
2023-05-01T07:29:26.000Z,65.05
2023-05-01T07:30:26.000Z,63.00
2023-05-01T07:31:26.000Z,61.67
2023-05-01T07:32:26.000Z,63.82
2023-05-01T07:33:26.000Z,64.43
2023-05-01T07:34:26.000Z,64.30
2023-05-01T07:35:26.000Z,62.77
2023-05-01T07:36:26.000Z,64.00
2023-05-01T07:37:26.000Z,61.03
2023-05-01T07:38:26.000Z,63.59
2023-05-01T07:39:26.000Z,62.05
2023-05-01T07:40:26.000Z,61.24
2023-05-01T07:41:26.000Z,60.39
2023-05-01T07:42:26.000Z,60.49
2023-05-01T07:43:26.000Z,60.69
2023-05-01T07:44:26.000Z,60.69
2023-05-01T07:45:26.000Z,61.82
2023-05-01T07:46:26.000Z,62.54
2023-05-01T07:47:26.000Z,60.80
2023-05-01T07:48:26.000Z,61.51
2023-05-01T07:49:26.000Z,63.35
2023-05-01T07:50:26.000Z,63.73
2023-05-01T07:51:26.000Z,62.51
2023-05-01T07:52:26.000Z,62.20
2023-05-01T07:53:26.000Z,64.04
2023-05-01T07:54:26.000Z,63.43
2023-05-01T07:55:26.000Z,64.83
2023-05-01T07:56:26.000Z,65.44
2023-05-01T07:57:26.000Z,63.90
2023-05-01T07:58:26.000Z,64.62
2023-05-01T07:59:26.000Z,62.24
2023-05-01T08:00:26.000Z,61.02
2023-05-01T08:01:26.000Z,59.80
2023-05-01T08:02:26.000Z,61.71
2023-05-01T08:03:26.000Z,62.82
2023-05-01T08:04:26.000Z,62.32
2023-05-01T08:05:26.000Z,61.50
2023-05-01T08:06:26.000Z,61.71
2023-05-01T08:07:26.000Z,62.29
2023-05-01T08:08:26.000Z,61.37
2023-05-01T08:09:26.000Z,60.14
2023-05-01T08:10:26.000Z,58.62
2023-05-01T08:11:26.000Z,60.86
2023-05-01T08:12:26.000Z,59.23
2023-05-01T08:13:26.000Z,57.29
2023-05-01T08:14:26.000Z,59.53
2023-05-01T08:15:26.000Z,59.53
2023-05-01T08:16:26.000Z,58.82
2023-05-01T08:17:26.000Z,57.80
2023-05-01T08:18:26.000Z,58.82
2023-05-01T08:19:26.000Z,59.53
2023-05-01T08:20:26.000Z,57.87
2023-05-01T08:21:26.000Z,57.78
2023-05-01T08:22:26.000Z,61.54
2023-05-01T08:23:26.000Z,61.34
2023-05-01T08:24:26.000Z,61.24
2023-05-01T08:25:26.000Z,57.54
2023-05-01T08:26:26.000Z,59.38
2023-05-01T08:27:26.000Z,57.95
2023-05-01T08:28:26.000Z,56.73
2023-05-01T08:29:26.000Z,57.42
2023-05-01T08:30:26.000Z,56.09
2023-05-01T08:31:25.000Z,56.12
2023-05-01T08:32:25.000Z,56.42
2023-05-01T08:33:25.000Z,56.73
2023-05-01T08:34:25.000Z,59.05
2023-05-01T08:35:25.000Z,55.68
2023-05-01T08:36:25.000Z,55.99
2023-05-01T08:37:25.000Z,56.29
2023-05-01T08:38:25.000Z,55.38
2023-05-01T08:39:25.000Z,55.38
2023-05-01T08:40:25.000Z,54.26
2023-05-01T08:41:25.000Z,56.68
2023-05-01T08:42:25.000Z,58.61
2023-05-01T08:43:25.000Z,58.10
2023-05-01T08:44:25.000Z,58.99
2023-05-01T08:45:25.000Z,56.65
2023-05-01T08:46:25.000Z,54.11
2023-05-01T08:47:25.000Z,52.61
2023-05-01T08:48:25.000Z,53.63
2023-05-01T08:49:25.000Z,56.14
2023-05-01T08:50:25.000Z,55.12
2023-05-01T08:51:25.000Z,57.36
2023-05-01T08:52:25.000Z,53.09
2023-05-01T08:53:25.000Z,53.50
2023-05-01T08:54:25.000Z,55.02
2023-05-01T08:55:25.000Z,56.55
2023-05-01T08:56:25.000Z,55.60
2023-05-01T08:57:25.000Z,53.78
2023-05-01T08:58:25.000Z,52.96
2023-05-01T08:59:25.000Z,52.96
2023-05-01T09:00:25.000Z,55.51
2023-05-01T09:01:25.000Z,52.56
2023-05-01T09:02:25.000Z,56.52
2023-05-01T09:03:25.000Z,53.78
2023-05-01T09:04:25.000Z,53.88
2023-05-01T09:05:25.000Z,54.28
2023-05-01T09:06:25.000Z,57.81
2023-05-01T09:07:25.000Z,57.92
2023-05-01T09:08:25.000Z,52.30
2023-05-01T09:09:24.000Z,55.25
2023-05-01T09:10:24.000Z,55.35
2023-05-01T09:11:24.000Z,51.77
2023-05-01T09:12:24.000Z,51.79
2023-05-01T09:13:24.000Z,50.78
2023-05-01T09:14:24.000Z,50.88
2023-05-01T09:15:24.000Z,52.00
2023-05-01T09:16:24.000Z,53.52
2023-05-01T09:17:24.000Z,55.15
2023-05-01T09:18:24.000Z,54.54
2023-05-01T09:19:24.000Z,52.81
2023-05-01T09:20:24.000Z,58.37
2023-05-01T09:21:24.000Z,52.38
2023-05-01T09:22:24.000Z,52.99
2023-05-01T09:23:24.000Z,55.10
2023-05-01T09:24:24.000Z,54.18
2023-05-01T09:25:24.000Z,52.86
2023-05-01T09:26:24.000Z,52.86
2023-05-01T09:27:24.000Z,50.51
2023-05-01T09:28:24.000Z,50.71
2023-05-01T09:29:24.000Z,53.85
2023-05-01T09:30:24.000Z,54.26
2023-05-01T09:31:24.000Z,51.90
2023-05-01T09:32:24.000Z,48.46
2023-05-01T09:33:24.000Z,52.20
2023-05-01T09:34:24.000Z,54.03
2023-05-01T09:35:24.000Z,53.93
2023-05-01T09:36:23.000Z,53.80
2023-05-01T09:37:23.000Z,56.03
2023-05-01T09:38:23.000Z,54.08
2023-05-01T09:39:23.000Z,53.37
2023-05-01T09:40:23.000Z,52.33
2023-05-01T09:41:23.000Z,52.33
2023-05-01T09:42:23.000Z,49.78
2023-05-01T09:43:23.000Z,46.84
2023-05-01T09:44:23.000Z,49.19
2023-05-01T09:45:23.000Z,48.18
2023-05-01T09:46:23.000Z,49.48
2023-05-01T09:47:23.000Z,49.48
2023-05-01T09:48:23.000Z,53.63
2023-05-01T09:49:23.000Z,48.46
2023-05-01T09:50:23.000Z,46.54
2023-05-01T09:51:23.000Z,47.35
2023-05-01T09:52:23.000Z,47.75
2023-05-01T09:53:23.000Z,48.57
2023-05-01T09:54:23.000Z,49.07
2023-05-01T09:55:22.000Z,48.06
2023-05-01T09:56:22.000Z,50.18
2023-05-01T09:57:22.000Z,52.21
2023-05-01T09:58:22.000Z,49.86
2023-05-01T09:59:22.000Z,47.53
2023-05-01T10:00:22.000Z,51.57
2023-05-01T10:01:22.000Z,52.26
2023-05-01T10:02:22.000Z,48.72
2023-05-01T10:03:22.000Z,46.30
2023-05-01T10:04:22.000Z,52.16
2023-05-01T10:05:22.000Z,47.20
2023-05-01T10:06:22.000Z,47.61
2023-05-01T10:07:22.000Z,47.91
2023-05-01T10:08:22.000Z,47.91
2023-05-01T10:09:22.000Z,48.62
2023-05-01T10:10:22.000Z,51.65
2023-05-01T10:11:22.000Z,49.93
2023-05-01T10:12:21.000Z,48.22
2023-05-01T10:13:21.000Z,47.51
2023-05-01T10:14:21.000Z,48.32
2023-05-01T10:15:21.000Z,47.81
2023-05-01T10:16:21.000Z,46.70
2023-05-01T10:17:21.000Z,48.11
2023-05-01T10:18:21.000Z,50.34
2023-05-01T10:19:21.000Z,51.25
2023-05-01T10:20:21.000Z,47.61
2023-05-01T10:21:21.000Z,47.61
2023-05-01T10:22:21.000Z,48.82
2023-05-01T10:23:21.000Z,48.11
2023-05-01T10:24:21.000Z,49.61
2023-05-01T10:25:21.000Z,47.99
2023-05-01T10:26:21.000Z,49.91
2023-05-01T10:27:21.000Z,50.42
2023-05-01T10:28:20.000Z,49.61
2023-05-01T10:29:20.000Z,48.39
2023-05-01T10:30:20.000Z,49.41
2023-05-01T10:31:20.000Z,48.39
2023-05-01T10:32:20.000Z,51.00
2023-05-01T10:33:20.000Z,49.28
2023-05-01T10:34:20.000Z,50.19
2023-05-01T10:35:20.000Z,48.37
2023-05-01T10:36:20.000Z,51.50
2023-05-01T10:37:20.000Z,48.37
2023-05-01T10:38:20.000Z,47.56
2023-05-01T10:39:20.000Z,46.76
2023-05-01T10:40:20.000Z,45.34
2023-05-01T10:41:20.000Z,47.26
2023-05-01T10:42:19.000Z,47.16
2023-05-01T10:43:19.000Z,47.87
2023-05-01T10:44:19.000Z,49.69
2023-05-01T10:45:19.000Z,46.96
2023-05-01T10:46:19.000Z,46.03
2023-05-01T10:47:19.000Z,45.54
2023-05-01T10:48:19.000Z,48.58
2023-05-01T10:49:19.000Z,49.16
2023-05-01T10:50:19.000Z,47.02
2023-05-01T10:51:19.000Z,46.01
2023-05-01T10:52:19.000Z,45.30
2023-05-01T10:53:19.000Z,44.01
2023-05-01T10:54:19.000Z,44.79
2023-05-01T10:55:19.000Z,46.21
2023-05-01T10:56:19.000Z,50.04
2023-05-01T10:57:18.000Z,48.83
2023-05-01T10:58:18.000Z,45.50
2023-05-01T10:59:18.000Z,46.11
2023-05-01T11:00:18.000Z,48.00
2023-05-01T11:01:18.000Z,45.48
2023-05-01T11:02:18.000Z,46.19
2023-05-01T11:03:18.000Z,46.89
2023-05-01T11:04:18.000Z,48.00
2023-05-01T11:05:18.000Z,44.78
2023-05-01T11:06:18.000Z,44.17
2023-05-01T11:07:18.000Z,45.26
2023-05-01T11:08:18.000Z,43.85
2023-05-01T11:09:18.000Z,42.33
2023-05-01T11:10:18.000Z,43.95
2023-05-01T11:11:17.000Z,42.33
2023-05-01T11:12:17.000Z,43.34
2023-05-01T11:13:17.000Z,42.54
2023-05-01T11:14:17.000Z,44.35
2023-05-01T11:15:17.000Z,46.06
2023-05-01T11:16:17.000Z,44.15
2023-05-01T11:17:17.000Z,44.93
2023-05-01T11:18:17.000Z,44.63
2023-05-01T11:19:17.000Z,45.03
2023-05-01T11:20:17.000Z,48.86
2023-05-01T11:21:17.000Z,47.25
2023-05-01T11:22:17.000Z,44.33
2023-05-01T11:23:17.000Z,46.33
2023-05-01T11:24:16.000Z,43.91
2023-05-01T11:25:16.000Z,43.10
2023-05-01T11:26:16.000Z,40.28
2023-05-01T11:27:16.000Z,44.01
2023-05-01T11:28:16.000Z,47.53
2023-05-01T11:29:16.000Z,45.12
2023-05-01T11:30:16.000Z,41.99
2023-05-01T11:31:16.000Z,42.30
2023-05-01T11:32:16.000Z,42.52
2023-05-01T11:33:16.000Z,42.60
2023-05-01T11:34:16.000Z,41.41
2023-05-01T11:35:16.000Z,44.92
2023-05-01T11:36:16.000Z,45.62
2023-05-01T11:37:15.000Z,42.70
2023-05-01T11:38:15.000Z,44.59
2023-05-01T11:39:15.000Z,41.89
2023-05-01T11:40:15.000Z,40.78
2023-05-01T11:41:15.000Z,41.59
2023-05-01T11:42:15.000Z,42.80
2023-05-01T11:43:15.000Z,42.30
2023-05-01T11:44:15.000Z,43.20
2023-05-01T11:45:15.000Z,42.70
2023-05-01T11:46:15.000Z,45.12
2023-05-01T11:47:15.000Z,43.30
2023-05-01T11:48:15.000Z,40.18
2023-05-01T11:49:14.000Z,42.40
2023-05-01T11:50:14.000Z,43.51
2023-05-01T11:51:14.000Z,40.91
2023-05-01T11:52:14.000Z,39.79
2023-05-01T11:53:14.000Z,43.32
2023-05-01T11:54:14.000Z,40.32
2023-05-01T11:55:14.000Z,41.42
2023-05-01T11:56:14.000Z,41.73
2023-05-01T11:57:14.000Z,41.73
2023-05-01T11:58:14.000Z,40.82
2023-05-01T11:59:14.000Z,44.65
2023-05-01T12:00:14.000Z,47.27
2023-05-01T12:01:14.000Z,44.25
2023-05-01T12:02:13.000Z,43.24
2023-05-01T12:03:13.000Z,44.45
2023-05-01T12:04:13.000Z,43.44
2023-05-01T12:05:13.000Z,42.03
2023-05-01T12:06:13.000Z,44.05
2023-05-01T12:07:13.000Z,41.83
2023-05-01T12:08:13.000Z,45.86
2023-05-01T12:09:13.000Z,44.35
2023-05-01T12:10:13.000Z,44.93
2023-05-01T12:11:13.000Z,43.52
2023-05-01T12:12:13.000Z,45.24
2023-05-01T12:13:13.000Z,45.62
2023-05-01T12:14:13.000Z,47.33
2023-05-01T12:15:12.000Z,44.19
2023-05-01T12:16:12.000Z,42.88
2023-05-01T12:17:12.000Z,43.38
2023-05-01T12:18:12.000Z,43.28
2023-05-01T12:19:12.000Z,42.78
2023-05-01T12:20:12.000Z,46.40
2023-05-01T12:21:12.000Z,45.09
2023-05-01T12:22:12.000Z,45.67
2023-05-01T12:23:12.000Z,42.35
2023-05-01T12:24:12.000Z,41.25
2023-05-01T12:25:12.000Z,43.36
2023-05-01T12:26:12.000Z,43.36
2023-05-01T12:27:11.000Z,44.27
2023-05-01T12:28:11.000Z,45.57
2023-05-01T12:29:11.000Z,41.75
2023-05-01T12:30:11.000Z,40.44
2023-05-01T12:31:11.000Z,44.27
2023-05-01T12:32:11.000Z,42.25
2023-05-01T12:33:11.000Z,40.04
2023-05-01T12:34:11.000Z,40.64
2023-05-01T12:35:11.000Z,42.05
2023-05-01T12:36:11.000Z,45.15
2023-05-01T12:37:11.000Z,41.23
2023-05-01T12:38:11.000Z,41.83
2023-05-01T12:39:11.000Z,42.94
2023-05-01T12:40:10.000Z,42.94
2023-05-01T12:41:10.000Z,42.64
2023-05-01T12:42:10.000Z,46.46
2023-05-01T12:43:10.000Z,45.25
2023-05-01T12:44:10.000Z,44.83
2023-05-01T12:45:10.000Z,42.11
2023-05-01T12:46:10.000Z,42.82
2023-05-01T12:47:10.000Z,40.50
2023-05-01T12:48:10.000Z,42.32
2023-05-01T12:49:10.000Z,40.42
2023-05-01T12:50:10.000Z,44.65
2023-05-01T12:51:10.000Z,44.53
2023-05-01T12:52:09.000Z,41.71